createdAt,value
2019-03-11T06:21:47.249Z,56.00
2019-03-11T06:22:47.221Z,76.00
2019-03-11T06:23:47.212Z,120.00
2019-03-11T06:24:47.198Z,92.00
2019-03-11T06:25:47.211Z,88.00
2019-03-11T06:26:47.181Z,104.00
2019-03-11T06:27:47.178Z,156.00
2019-03-11T06:28:47.161Z,232.00
2019-03-11T06:29:47.167Z,188.00
2019-03-11T06:30:47.159Z,388.00
2019-03-11T06:31:47.128Z,388.00
2019-03-11T06:32:47.118Z,324.00
2019-03-11T06:33:47.106Z,460.00
2019-03-11T06:34:47.111Z,416.00
2019-03-11T06:35:47.104Z,492.00
2019-03-11T06:36:47.071Z,444.00
2019-03-11T06:37:47.061Z,404.00
2019-03-11T06:38:47.048Z,452.00
2019-03-11T06:39:47.046Z,428.00
2019-03-11T06:40:47.070Z,544.00
2019-03-11T06:41:47.017Z,596.00
2019-03-11T06:42:47.010Z,712.00
2019-03-11T06:44:42.097Z,820.00
2019-03-11T06:45:42.093Z,796.00
2019-03-11T06:46:42.068Z,776.00
2019-03-11T06:47:42.050Z,792.00
2019-03-11T06:48:42.039Z,880.00
2019-03-11T06:49:42.027Z,856.00
2019-03-11T06:50:42.038Z,736.00
2019-03-11T06:51:42.008Z,684.00
2019-03-11T06:52:42.001Z,712.00
2019-03-11T06:53:41.995Z,680.00
2019-03-11T06:54:41.992Z,444.00
2019-03-11T06:55:41.982Z,244.00
2019-03-11T06:56:41.955Z,124.00
2019-03-11T06:57:41.946Z,84.00
2019-03-11T06:58:41.938Z,68.00
2019-03-11T06:59:41.932Z,56.00
2019-03-11T07:00:41.937Z,76.00
2019-03-11T07:01:41.900Z,100.00
2019-03-11T07:02:41.889Z,128.00
2019-03-11T07:03:41.877Z,180.00
2019-03-11T07:04:41.867Z,184.00
2019-03-11T07:05:41.890Z,240.00
2019-03-11T07:06:41.847Z,252.00
2019-03-11T07:07:41.840Z,240.00
2019-03-11T07:08:41.917Z,260.00
2019-03-11T07:09:41.813Z,244.00
2019-03-11T07:10:41.827Z,216.00
2019-03-11T07:11:41.805Z,176.00
2019-03-11T07:12:41.781Z,116.00
2019-03-11T07:13:41.770Z,112.00
2019-03-11T07:14:41.763Z,164.00
2019-03-11T07:15:41.769Z,220.00
2019-03-11T07:16:41.742Z,148.00
2019-03-11T07:17:41.741Z,188.00
2019-03-11T07:18:41.717Z,244.00
2019-03-11T07:19:41.706Z,280.00
2019-03-11T07:20:41.699Z,272.00
2019-03-11T07:21:41.711Z,284.00
2019-03-11T07:22:41.678Z,400.00
2019-03-11T07:23:41.682Z,552.00
2019-03-11T07:24:41.658Z,540.00
2019-03-11T07:25:41.666Z,612.00
2019-03-11T07:26:41.631Z,564.00
2019-03-11T07:27:41.621Z,492.00
2019-03-11T07:28:41.613Z,716.00
2019-03-11T07:29:41.606Z,928.00
2019-03-11T07:30:41.620Z,1268.00
2019-03-11T07:31:41.577Z,2132.00
2019-03-11T07:32:41.566Z,2252.00
2019-03-11T07:33:41.557Z,2168.00
2019-03-11T07:34:41.549Z,2468.00
2019-03-11T07:35:41.560Z,2720.00
2019-03-11T07:36:41.530Z,2036.00
2019-03-11T07:37:41.515Z,2388.00
2019-03-11T07:38:41.505Z,2456.00
2019-03-11T07:39:41.492Z,2776.00
2019-03-11T07:40:41.504Z,2620.00
2019-03-11T07:41:41.479Z,2656.00
2019-03-11T07:42:41.467Z,3612.00
2019-03-11T07:43:41.451Z,3408.00
2019-03-11T07:44:41.444Z,2360.00
2019-03-11T07:45:41.461Z,1872.00
2019-03-11T07:46:41.423Z,1752.00
2019-03-11T07:47:41.407Z,2004.00
2019-03-11T07:48:41.395Z,2240.00
2019-03-11T07:49:41.402Z,2624.00
2019-03-11T07:50:41.378Z,3072.00
2019-03-11T07:51:41.386Z,3340.00
2019-03-11T07:52:41.353Z,3576.00
2019-03-11T07:53:41.341Z,3728.00
2019-03-11T07:54:41.350Z,4396.00
2019-03-11T07:55:41.332Z,3716.00
2019-03-11T07:56:41.332Z,3408.00
2019-03-11T07:57:41.305Z,2984.00
2019-03-11T07:58:41.292Z,2420.00
2019-03-11T07:59:41.298Z,1528.00
2019-03-11T08:00:41.268Z,1588.00
2019-03-11T08:01:41.280Z,1288.00
2019-03-11T08:02:41.246Z,1260.00
2019-03-11T08:03:41.234Z,2156.00
2019-03-11T08:04:41.227Z,2028.00
2019-03-11T08:05:41.214Z,2392.00
2019-03-11T08:06:41.226Z,1816.00
2019-03-11T08:07:41.192Z,1216.00
2019-03-11T08:08:41.192Z,1116.00
2019-03-11T08:09:41.177Z,1204.00
2019-03-11T08:10:41.161Z,1232.00
2019-03-11T08:11:41.325Z,964.00
2019-03-11T08:12:41.140Z,1332.00
2019-03-11T08:13:41.128Z,1860.00
2019-03-11T08:14:41.127Z,2288.00
2019-03-11T08:15:41.110Z,1832.00
2019-03-11T08:16:41.114Z,2224.00
2019-03-11T08:17:41.099Z,1264.00
2019-03-11T08:18:41.074Z,1188.00
2019-03-11T08:19:41.063Z,1472.00
2019-03-11T08:20:41.108Z,1596.00
2019-03-11T08:21:41.062Z,1516.00
2019-03-11T08:22:41.031Z,2052.00
2019-03-11T08:23:41.020Z,3336.00
2019-03-11T08:24:41.013Z,3656.00
2019-03-11T08:25:40.999Z,2696.00
2019-03-11T08:26:41.015Z,3128.00
2019-03-11T08:27:40.976Z,3072.00
2019-03-11T08:28:40.966Z,5440.00
2019-03-11T08:29:40.955Z,3588.00
2019-03-11T08:30:40.996Z,2972.00
2019-03-11T08:31:40.954Z,3204.00
2019-03-11T08:32:40.933Z,4248.00
2019-03-11T08:33:40.913Z,5400.00
2019-03-11T08:34:40.901Z,5952.00
2019-03-11T08:35:40.891Z,3288.00
2019-03-11T08:36:40.912Z,2988.00
2019-03-11T08:37:40.874Z,2572.00
2019-03-11T08:38:40.866Z,3156.00
2019-03-11T08:39:40.857Z,2184.00
2019-03-11T08:40:42.803Z,1720.00
2019-03-11T08:41:40.854Z,1680.00
2019-03-11T08:42:40.819Z,1836.00
2019-03-11T08:43:40.813Z,2120.00
2019-03-11T08:44:40.795Z,2624.00
2019-03-11T08:45:40.790Z,1828.00
2019-03-11T08:46:40.793Z,2332.00
2019-03-11T08:47:40.764Z,3592.00
2019-03-11T08:48:40.753Z,5660.00
2019-03-11T08:49:40.746Z,6092.00
2019-03-11T08:50:40.730Z,4948.00
2019-03-11T08:51:40.759Z,6312.00
2019-03-11T08:52:40.712Z,6752.00
2019-03-11T08:53:40.701Z,7756.00
2019-03-11T08:54:40.689Z,8852.00
2019-03-11T08:55:40.682Z,8600.00
2019-03-11T08:56:40.706Z,9396.00
2019-03-11T08:57:41.493Z,11420.00
2019-03-11T08:58:40.652Z,7060.00
2019-03-11T08:59:40.636Z,3864.00
2019-03-11T09:00:40.630Z,3492.00
2019-03-11T09:01:40.640Z,5236.00
2019-03-11T09:02:40.605Z,4780.00
2019-03-11T09:03:41.117Z,5436.00
2019-03-11T09:04:40.628Z,3032.00
2019-03-11T09:05:40.575Z,2096.00
2019-03-11T09:06:40.588Z,3500.00
2019-03-11T09:07:40.554Z,4792.00
2019-03-11T09:08:40.548Z,3360.00
2019-03-11T09:09:40.550Z,2356.00
2019-03-11T09:10:40.525Z,2324.00
2019-03-11T09:11:40.534Z,1220.00
2019-03-11T09:12:40.504Z,1432.00
2019-03-11T09:13:40.494Z,1456.00
2019-03-11T09:14:40.490Z,792.00
2019-03-11T09:15:40.479Z,956.00
2019-03-11T09:16:40.474Z,1344.00
2019-03-11T09:17:40.471Z,1512.00
2019-03-11T09:18:40.441Z,1276.00
2019-03-11T09:19:40.430Z,784.00
2019-03-11T09:20:40.431Z,1088.00
2019-03-11T09:21:40.438Z,1376.00
2019-03-11T09:22:40.417Z,1676.00
2019-03-11T09:23:40.410Z,2212.00
2019-03-11T09:24:40.395Z,2240.00
2019-03-11T09:25:40.365Z,2420.00
2019-03-11T09:26:40.393Z,3368.00
2019-03-11T09:27:40.350Z,3504.00
2019-03-11T09:28:40.345Z,2672.00
2019-03-11T09:29:40.325Z,2380.00
2019-03-11T09:30:40.325Z,2704.00
2019-03-11T09:31:40.304Z,3532.00
2019-03-11T09:32:40.336Z,3272.00
2019-03-11T09:33:40.286Z,4236.00
2019-03-11T09:34:40.271Z,3512.00
2019-03-11T09:35:40.266Z,2612.00
2019-03-11T09:36:40.321Z,3388.00
2019-03-11T09:37:40.289Z,11056.00
2019-03-11T09:38:40.230Z,14740.00
2019-03-11T09:39:40.222Z,6348.00
2019-03-11T09:40:40.212Z,5856.00
2019-03-11T09:41:40.208Z,4676.00
2019-03-11T09:42:40.214Z,2100.00
2019-03-11T09:43:40.184Z,3708.00
2019-03-11T09:44:40.166Z,3008.00
2019-03-11T09:45:40.162Z,3264.00
2019-03-11T09:46:40.150Z,2656.00
2019-03-11T09:47:40.156Z,2140.00
2019-03-11T09:48:40.128Z,2300.00
2019-03-11T09:49:40.116Z,2452.00
2019-03-11T09:50:40.178Z,1984.00
2019-03-11T09:51:40.096Z,1848.00
2019-03-11T09:52:40.110Z,1936.00
2019-03-11T09:53:40.073Z,4180.00
2019-03-11T09:54:40.088Z,9140.00
2019-03-11T09:55:40.054Z,4860.00
2019-03-11T09:56:43.643Z,4816.00
2019-03-11T09:57:40.051Z,3356.00
2019-03-11T09:58:40.028Z,2096.00
2019-03-11T09:59:40.011Z,1912.00
2019-03-11T10:00:40.002Z,2196.00
2019-03-11T10:01:39.991Z,3784.00
2019-03-11T10:02:51.222Z,2840.00
2019-03-11T10:03:40.967Z,2268.00
2019-03-11T10:04:39.959Z,1836.00
2019-03-11T10:05:39.948Z,1556.00
2019-03-11T10:06:39.948Z,1748.00
2019-03-11T10:07:39.991Z,1768.00
2019-03-11T10:08:39.987Z,1628.00
2019-03-11T10:09:39.907Z,1516.00
2019-03-11T10:10:39.895Z,1440.00
2019-03-11T10:11:39.888Z,2436.00
2019-03-11T10:12:39.909Z,3340.00
2019-03-11T10:13:39.863Z,1428.00
2019-03-11T10:14:39.857Z,1344.00
2019-03-11T10:15:39.844Z,1972.00
2019-03-11T10:16:39.830Z,2032.00
2019-03-11T10:17:39.847Z,1740.00
2019-03-11T10:18:39.812Z,1508.00
2019-03-11T10:19:39.803Z,1344.00
2019-03-11T10:20:39.788Z,1428.00
2019-03-11T10:21:39.783Z,1712.00
2019-03-11T10:22:39.795Z,1536.00
2019-03-11T10:23:39.756Z,1396.00
2019-03-11T10:24:39.754Z,1608.00
2019-03-11T10:25:39.736Z,1224.00
2019-03-11T10:26:39.725Z,1104.00
2019-03-11T10:27:39.733Z,1084.00
2019-03-11T10:28:39.720Z,1192.00
2019-03-11T10:29:39.693Z,1008.00
2019-03-11T10:30:39.685Z,888.00
2019-03-11T10:31:39.672Z,740.00
2019-03-11T10:32:40.955Z,728.00
2019-03-11T10:33:39.654Z,820.00
2019-03-11T10:34:39.648Z,992.00
2019-03-11T10:35:39.635Z,1172.00
2019-03-11T10:36:39.619Z,1480.00
2019-03-11T10:37:39.635Z,1660.00
2019-03-11T10:38:39.597Z,1804.00
2019-03-11T10:39:39.587Z,1972.00
2019-03-11T10:40:39.588Z,2040.00
2019-03-11T10:41:39.572Z,2008.00
2019-03-11T10:42:39.577Z,1324.00
2019-03-11T10:43:39.547Z,1480.00
2019-03-11T10:44:39.540Z,1624.00
2019-03-11T10:45:39.525Z,1556.00
2019-03-11T10:46:39.515Z,1092.00
2019-03-11T10:47:39.533Z,1156.00
2019-03-11T10:48:39.511Z,1188.00
2019-03-11T10:49:39.482Z,892.00
2019-03-11T10:50:39.470Z,708.00
2019-03-11T10:51:39.459Z,648.00
2019-03-11T10:52:39.488Z,612.00
2019-03-11T10:53:39.437Z,552.00
2019-03-11T10:54:39.487Z,496.00
2019-03-11T10:55:39.417Z,412.00
2019-03-11T10:56:39.413Z,280.00
2019-03-11T10:57:39.413Z,252.00
2019-03-11T10:58:39.440Z,332.00
2019-03-11T10:59:39.384Z,720.00
2019-03-11T11:00:39.364Z,1392.00
2019-03-11T11:01:39.360Z,1444.00
2019-03-11T11:02:39.387Z,2148.00
2019-03-11T11:03:39.332Z,1736.00
2019-03-11T11:04:39.339Z,1508.00
2019-03-11T11:05:39.339Z,1408.00
2019-03-11T11:06:39.327Z,1868.00
2019-03-11T11:07:39.329Z,1488.00
2019-03-11T11:08:39.287Z,1204.00
2019-03-11T11:09:39.270Z,1620.00
2019-03-11T11:10:39.262Z,1936.00
2019-03-11T11:11:39.263Z,1844.00
2019-03-11T11:12:39.241Z,1424.00
2019-03-11T11:13:39.249Z,1164.00
2019-03-11T11:14:39.230Z,1360.00
2019-03-11T11:15:39.251Z,1808.00
2019-03-11T11:16:39.249Z,2272.00
2019-03-11T11:17:39.186Z,2520.00
2019-03-11T11:18:39.196Z,1240.00
2019-03-11T11:19:39.165Z,1252.00
2019-03-11T11:20:39.195Z,1428.00
2019-03-11T11:21:39.175Z,1980.00
2019-03-11T11:22:39.131Z,2132.00
2019-03-11T11:23:39.144Z,1464.00
2019-03-11T11:24:39.110Z,1980.00
2019-03-11T11:25:39.099Z,3184.00
2019-03-11T11:26:39.088Z,1808.00
2019-03-11T11:27:39.080Z,1872.00
2019-03-11T11:28:39.096Z,2512.00
2019-03-11T11:29:39.060Z,3540.00
2019-03-11T11:30:39.050Z,6840.00
2019-03-11T11:31:39.041Z,3812.00
2019-03-11T11:32:39.025Z,2308.00
2019-03-11T11:33:39.050Z,2280.00
2019-03-11T11:34:39.004Z,3120.00
2019-03-11T11:35:38.997Z,4508.00
2019-03-11T11:36:38.992Z,5944.00
2019-03-11T11:37:38.979Z,3048.00
2019-03-11T11:38:38.987Z,1636.00
2019-03-11T11:39:38.960Z,2940.00
2019-03-11T11:40:38.964Z,13312.00
2019-03-11T11:41:38.932Z,25952.00
2019-03-11T11:42:38.925Z,4564.00
2019-03-11T11:43:38.928Z,10172.00
2019-03-11T11:44:38.897Z,52352.00
2019-03-11T11:45:38.894Z,47360.00
2019-03-11T11:46:38.875Z,59200.00
2019-03-11T11:47:38.868Z,59936.00
2019-03-11T11:48:38.885Z,59040.00
2019-03-11T11:49:38.880Z,52256.00
2019-03-11T11:50:38.851Z,19456.00
2019-03-11T11:51:38.822Z,48320.00
2019-03-11T11:52:38.810Z,57792.00
2019-03-11T11:53:38.815Z,8396.00
2019-03-11T11:54:38.788Z,55776.00
2019-03-11T11:55:38.806Z,56864.00
2019-03-11T11:56:38.765Z,13584.00
2019-03-11T11:57:38.770Z,52896.00
2019-03-11T11:58:40.683Z,52800.00
2019-03-11T11:59:38.739Z,53216.00
2019-03-11T12:00:38.723Z,5640.00
2019-03-11T12:01:38.713Z,49088.00
2019-03-11T12:02:38.701Z,50112.00
2019-03-11T12:03:38.720Z,52000.00
2019-03-11T12:04:38.687Z,29472.00
2019-03-11T12:05:38.671Z,42016.00
2019-03-11T12:06:38.669Z,6648.00
2019-03-11T12:07:38.652Z,7420.00
2019-03-11T12:08:38.659Z,11848.00
2019-03-11T12:09:38.625Z,12688.00
2019-03-11T12:10:38.621Z,5408.00
2019-03-11T12:11:38.607Z,4120.00
2019-03-11T12:12:38.591Z,5848.00
2019-03-11T12:13:38.625Z,4136.00
2019-03-11T12:14:38.571Z,5380.00
2019-03-11T12:15:38.560Z,4840.00
2019-03-11T12:16:38.569Z,4196.00
2019-03-11T12:17:38.540Z,7420.00
2019-03-11T12:18:38.549Z,10804.00
2019-03-11T12:19:38.517Z,46720.00
2019-03-11T12:20:38.505Z,44224.00
2019-03-11T12:21:38.503Z,47104.00
2019-03-11T12:22:38.496Z,10340.00
2019-03-11T12:23:46.258Z,53920.00
2019-03-11T12:24:39.463Z,43264.00
2019-03-11T12:25:38.451Z,22336.00
2019-03-11T12:26:38.439Z,15680.00
2019-03-11T12:27:38.441Z,15968.00
2019-03-11T12:28:38.438Z,15136.00
2019-03-11T12:29:38.406Z,15968.00
2019-03-11T12:30:38.398Z,15360.00
2019-03-11T12:31:38.410Z,13568.00
2019-03-11T12:32:38.378Z,12740.00
2019-03-11T12:33:38.385Z,6580.00
2019-03-11T12:34:38.365Z,8868.00
2019-03-11T12:35:38.349Z,12292.00
2019-03-11T12:36:38.351Z,16256.00
2019-03-11T12:37:38.322Z,6848.00
2019-03-11T12:38:38.337Z,7340.00
2019-03-11T12:39:38.299Z,7076.00
2019-03-11T12:40:38.296Z,7644.00
2019-03-11T12:41:38.284Z,8396.00
2019-03-11T12:42:38.270Z,7416.00
2019-03-11T12:43:38.278Z,5484.00
2019-03-11T12:44:38.244Z,6880.00
2019-03-11T12:45:38.244Z,7720.00
2019-03-11T12:46:38.232Z,6064.00
2019-03-11T12:47:38.217Z,6080.00
2019-03-11T12:48:38.235Z,4176.00
2019-03-11T12:49:38.190Z,4060.00
2019-03-11T12:50:38.179Z,8116.00
2019-03-11T12:51:48.923Z,7620.00
2019-03-11T12:52:39.170Z,13984.00
2019-03-11T12:53:38.152Z,12024.00
2019-03-11T12:54:38.158Z,12152.00
2019-03-11T12:55:38.128Z,4748.00
2019-03-11T12:56:38.117Z,5672.00
2019-03-11T12:57:38.107Z,4040.00
2019-03-11T12:58:41.912Z,3552.00
2019-03-11T12:59:40.790Z,4200.00
2019-03-11T13:00:38.074Z,3752.00
2019-03-11T13:01:38.070Z,4392.00
2019-03-11T13:02:38.050Z,12940.00
2019-03-11T13:03:38.042Z,10816.00
2019-03-11T13:04:38.055Z,7832.00
2019-03-11T13:05:38.025Z,3120.00
2019-03-11T13:06:38.011Z,2992.00
2019-03-11T13:07:38.829Z,3508.00
2019-03-11T13:08:37.988Z,2952.00
2019-03-11T13:09:37.997Z,2748.00
2019-03-11T13:10:37.971Z,2668.00
2019-03-11T13:11:37.983Z,3104.00
2019-03-11T13:12:37.972Z,3452.00
2019-03-11T13:13:37.931Z,3380.00
2019-03-11T13:14:37.945Z,3188.00
2019-03-11T13:15:37.915Z,3732.00
2019-03-11T13:16:37.921Z,10008.00
2019-03-11T13:17:37.889Z,8812.00
2019-03-11T13:18:37.877Z,6600.00
2019-03-11T13:19:37.886Z,7744.00
2019-03-11T13:20:37.855Z,7032.00
2019-03-11T13:21:37.850Z,4920.00
2019-03-11T13:22:37.847Z,4860.00
2019-03-11T13:23:37.827Z,4664.00
2019-03-11T13:24:37.845Z,5228.00
2019-03-11T13:25:37.805Z,4600.00
2019-03-11T13:26:37.794Z,5724.00
2019-03-11T13:27:37.799Z,5580.00
2019-03-11T13:28:37.775Z,4808.00
2019-03-11T13:29:37.783Z,5140.00
2019-03-11T13:30:37.748Z,5276.00
2019-03-11T13:31:37.737Z,5324.00
2019-03-11T13:32:37.731Z,4616.00
2019-03-11T13:33:37.713Z,4692.00
2019-03-11T13:34:37.721Z,3900.00
2019-03-11T13:35:37.710Z,4460.00
2019-03-11T13:36:37.681Z,4088.00
2019-03-11T13:37:37.677Z,4592.00
2019-03-11T13:38:37.666Z,5080.00
2019-03-11T13:39:37.674Z,5228.00
2019-03-11T13:40:37.631Z,3488.00
2019-03-11T13:41:37.627Z,2588.00
2019-03-11T13:42:37.610Z,1900.00
2019-03-11T13:43:37.599Z,1924.00
2019-03-11T13:44:37.611Z,1832.00
2019-03-11T13:45:37.585Z,1816.00
2019-03-11T13:46:37.576Z,1888.00
2019-03-11T13:47:37.563Z,2428.00
2019-03-11T13:48:37.550Z,2220.00
2019-03-11T13:49:37.565Z,1976.00
2019-03-11T13:50:37.522Z,2448.00
2019-03-11T13:51:37.512Z,2416.00
2019-03-11T13:52:37.499Z,2508.00
2019-03-11T13:53:37.493Z,2656.00
2019-03-11T13:54:37.502Z,2480.00
2019-03-11T13:55:37.475Z,2436.00
2019-03-11T13:56:37.461Z,2676.00
2019-03-11T13:57:37.447Z,2868.00
2019-03-11T13:58:37.437Z,3116.00
2019-03-11T13:59:37.450Z,3120.00
2019-03-11T14:00:37.413Z,3128.00
2019-03-11T14:01:38.177Z,2856.00
2019-03-11T14:02:37.394Z,2608.00
2019-03-11T14:03:37.385Z,2436.00
2019-03-11T14:04:37.391Z,2260.00
2019-03-11T14:05:37.358Z,2084.00
2019-03-11T14:06:37.350Z,1900.00
2019-03-11T14:07:37.338Z,1736.00
2019-03-11T14:08:37.329Z,1660.00
2019-03-11T14:09:37.346Z,1620.00
2019-03-11T14:10:37.314Z,1600.00
2019-03-11T14:11:37.304Z,1604.00
2019-03-11T14:12:37.282Z,1720.00
2019-03-11T14:13:37.273Z,1840.00
2019-03-11T14:14:37.281Z,2472.00
2019-03-11T14:15:37.260Z,3412.00
2019-03-11T14:16:37.250Z,3744.00
2019-03-11T14:17:37.240Z,3152.00
2019-03-11T14:18:37.216Z,2816.00
2019-03-11T14:19:37.236Z,3036.00
2019-03-11T14:20:37.200Z,3492.00
2019-03-11T14:21:37.190Z,3340.00
2019-03-11T14:22:37.173Z,3288.00
2019-03-11T14:23:37.164Z,2740.00
2019-03-11T14:24:37.171Z,2468.00
2019-03-11T14:25:37.141Z,2348.00
2019-03-11T14:26:37.141Z,1924.00
2019-03-11T14:27:37.123Z,2532.00
2019-03-11T14:28:37.124Z,2780.00
2019-03-11T14:29:37.136Z,2968.00
2019-03-11T14:30:37.087Z,2648.00
2019-03-11T14:31:37.085Z,2836.00
2019-03-11T14:32:37.072Z,2500.00
2019-03-11T14:33:37.060Z,2160.00
2019-03-11T14:34:37.048Z,2008.00
2019-03-11T14:35:37.052Z,2748.00
2019-03-11T14:36:37.023Z,2868.00
2019-03-11T14:37:37.010Z,2516.00
2019-03-11T14:38:37.007Z,1932.00
2019-03-11T14:39:36.997Z,1572.00
2019-03-11T14:40:37.004Z,1432.00
2019-03-11T14:41:36.968Z,1500.00
2019-03-11T14:42:36.958Z,1588.00
2019-03-11T14:43:36.945Z,1720.00
2019-03-11T14:44:36.946Z,1852.00
2019-03-11T14:45:36.946Z,2200.00
2019-03-11T14:46:36.914Z,2892.00
2019-03-11T14:47:36.904Z,3268.00
2019-03-11T14:48:36.893Z,3112.00
2019-03-11T14:49:36.884Z,3144.00
2019-03-11T14:50:36.896Z,3012.00
2019-03-11T14:51:36.979Z,2328.00
2019-03-11T14:52:36.886Z,2608.00
2019-03-11T14:53:36.838Z,2704.00
2019-03-11T14:54:36.835Z,2348.00
2019-03-11T14:55:36.838Z,1356.00
2019-03-11T14:56:36.810Z,780.00
2019-03-11T14:57:36.805Z,924.00
2019-03-11T14:58:36.785Z,1392.00
2019-03-11T14:59:36.789Z,1476.00
2019-03-11T15:00:36.782Z,1484.00
2019-03-11T15:01:36.756Z,2128.00
2019-03-11T15:02:36.756Z,2880.00
2019-03-11T15:03:36.731Z,2108.00
2019-03-11T15:04:36.720Z,2028.00
2019-03-11T15:05:36.738Z,2128.00
2019-03-11T15:06:36.700Z,2172.00
2019-03-11T15:07:36.714Z,2200.00
2019-03-11T15:08:37.554Z,2220.00
2019-03-11T15:09:36.668Z,2396.00
2019-03-11T15:10:36.681Z,2576.00
2019-03-11T15:11:36.745Z,2544.00
2019-03-11T15:12:36.635Z,1900.00
2019-03-11T15:13:36.626Z,1996.00
2019-03-11T15:14:36.618Z,1628.00
2019-03-11T15:15:36.628Z,1888.00
2019-03-11T15:16:36.591Z,2096.00
2019-03-11T15:17:36.626Z,1940.00
2019-03-11T15:18:36.577Z,1728.00
2019-03-11T15:19:36.564Z,1484.00
2019-03-11T15:20:36.595Z,1740.00
2019-03-11T15:21:36.546Z,1516.00
2019-03-11T15:22:36.533Z,2320.00
2019-03-11T15:23:36.519Z,2360.00
2019-03-11T15:24:36.509Z,2340.00
2019-03-11T15:25:36.521Z,2808.00
2019-03-11T15:26:36.489Z,2900.00
2019-03-11T15:27:36.497Z,2208.00
2019-03-11T15:28:36.467Z,1660.00
2019-03-11T15:29:36.460Z,1376.00
2019-03-11T15:30:36.468Z,1792.00
2019-03-11T15:31:36.437Z,1660.00
2019-03-11T15:32:36.427Z,1196.00
2019-03-11T15:33:36.424Z,1192.00
2019-03-11T15:34:36.432Z,1536.00
2019-03-11T15:35:36.420Z,1688.00
2019-03-11T15:36:36.382Z,1444.00
2019-03-11T15:37:36.401Z,1012.00
2019-03-11T15:38:36.359Z,780.00
2019-03-11T15:39:36.358Z,924.00
2019-03-11T15:40:36.372Z,1112.00
2019-03-11T15:41:36.330Z,812.00
2019-03-11T15:42:36.327Z,740.00
2019-03-11T15:43:36.304Z,1204.00
2019-03-11T15:44:36.316Z,2240.00
2019-03-11T15:45:38.980Z,2212.00
2019-03-11T15:46:39.444Z,1704.00
2019-03-11T15:47:36.284Z,1624.00
2019-03-11T15:48:36.271Z,1560.00
2019-03-11T15:49:36.240Z,864.00
2019-03-11T15:50:36.257Z,716.00
2019-03-11T15:51:37.061Z,672.00
2019-03-11T15:52:36.207Z,988.00
2019-03-11T15:53:36.206Z,1380.00
2019-03-11T15:54:36.186Z,1168.00
2019-03-11T15:55:36.204Z,1300.00
2019-03-11T15:56:36.168Z,1424.00
2019-03-11T15:57:39.157Z,1624.00
2019-03-11T15:58:36.167Z,1608.00
2019-03-11T15:59:36.149Z,1392.00
2019-03-11T16:00:36.167Z,1212.00
2019-03-11T16:01:36.111Z,1008.00
2019-03-11T16:02:36.102Z,944.00
2019-03-11T16:03:36.723Z,1036.00
2019-03-11T16:04:36.079Z,1024.00
2019-03-11T16:05:36.133Z,1132.00
2019-03-11T16:06:36.078Z,1036.00
2019-03-11T16:07:36.063Z,900.00
2019-03-11T16:08:36.036Z,872.00
2019-03-11T16:09:36.030Z,776.00
2019-03-11T16:10:36.018Z,932.00
2019-03-11T16:11:36.026Z,1168.00
2019-03-11T16:12:36.005Z,960.00
2019-03-11T16:13:35.984Z,820.00
2019-03-11T16:14:35.981Z,736.00
2019-03-11T16:15:35.972Z,800.00
2019-03-11T16:16:36.000Z,724.00
2019-03-11T16:17:35.943Z,604.00
2019-03-11T16:18:35.940Z,808.00
2019-03-11T16:19:35.932Z,936.00
2019-03-11T16:20:35.919Z,748.00
2019-03-11T16:21:35.925Z,668.00
2019-03-11T16:22:35.898Z,1252.00
2019-03-11T16:23:35.882Z,1508.00
2019-03-11T16:24:35.872Z,1844.00
2019-03-11T16:25:35.860Z,1548.00
2019-03-11T16:26:35.857Z,1400.00
2019-03-11T16:27:35.865Z,1140.00
2019-03-11T16:28:35.828Z,1016.00
2019-03-11T16:29:35.817Z,780.00
2019-03-11T16:30:35.807Z,896.00
2019-03-11T16:31:35.814Z,876.00
2019-03-11T16:32:37.288Z,764.00
2019-03-11T16:33:35.793Z,832.00
2019-03-11T16:34:35.766Z,792.00
2019-03-11T16:35:35.756Z,632.00
2019-03-11T16:36:35.764Z,820.00
2019-03-11T16:37:35.731Z,724.00
2019-03-11T16:38:35.783Z,596.00
2019-03-11T16:39:35.730Z,588.00
2019-03-11T16:40:35.710Z,604.00
2019-03-11T16:41:35.723Z,624.00
2019-03-11T16:42:35.688Z,656.00
2019-03-11T16:43:35.672Z,680.00
2019-03-11T16:44:35.661Z,768.00
2019-03-11T16:45:35.663Z,760.00
2019-03-11T16:46:35.657Z,780.00
2019-03-11T16:47:35.624Z,852.00
2019-03-11T16:48:35.641Z,840.00
2019-03-11T16:49:35.603Z,812.00
2019-03-11T16:50:35.598Z,804.00
2019-03-11T16:51:35.605Z,716.00
2019-03-11T16:52:35.586Z,704.00
2019-03-11T16:53:35.577Z,600.00
2019-03-11T16:54:35.550Z,580.00
2019-03-11T16:55:35.542Z,620.00
2019-03-11T16:56:35.551Z,628.00
2019-03-11T16:57:35.527Z,508.00
2019-03-11T16:58:35.507Z,460.00
2019-03-11T16:59:35.498Z,440.00
2019-03-11T17:00:35.557Z,432.00
2019-03-11T17:01:35.497Z,448.00
2019-03-11T17:02:35.474Z,480.00
2019-03-11T17:03:35.456Z,456.00
2019-03-11T17:04:35.445Z,368.00
2019-03-11T17:05:35.439Z,288.00
2019-03-11T17:06:35.446Z,208.00
2019-03-11T17:07:35.414Z,148.00
2019-03-11T17:08:35.430Z,108.00
2019-03-11T17:09:35.393Z,108.00
2019-03-11T17:10:35.393Z,100.00
2019-03-11T17:11:35.402Z,96.00
2019-03-11T17:12:35.358Z,88.00
2019-03-11T17:13:35.352Z,88.00
2019-03-11T17:14:35.343Z,80.00
2019-03-11T17:15:35.342Z,84.00
2019-03-11T17:16:35.347Z,92.00
2019-03-11T17:17:35.314Z,100.00
2019-03-11T17:18:35.303Z,104.00
2019-03-11T17:19:35.293Z,96.00
2019-03-11T17:20:35.340Z,88.00
2019-03-11T17:21:35.292Z,84.00
2019-03-11T17:22:35.268Z,80.00
2019-03-11T17:23:35.254Z,72.00
2019-03-11T17:24:35.241Z,64.00
2019-03-11T17:25:35.225Z,44.00
2019-03-11T17:26:35.253Z,28.00
2019-03-11T17:27:35.241Z,20.00
2019-03-11T17:28:35.210Z,20.00
2019-03-11T17:29:35.185Z,20.00
2019-03-11T17:30:35.178Z,20.00
2019-03-11T17:31:35.224Z,20.00
2019-03-11T17:32:35.155Z,16.00
2019-03-11T17:33:35.147Z,16.00
2019-03-11T17:34:35.140Z,12.00
2019-03-11T17:35:37.559Z,12.00
2019-03-11T17:36:35.173Z,12.00
2019-03-11T17:37:35.102Z,12.00
2019-03-11T17:38:35.101Z,8.00
2019-03-11T17:39:35.089Z,4.00
2019-03-11T17:40:35.086Z,4.00
2019-03-11T17:41:35.061Z,4.00
2019-03-11T17:42:35.082Z,4.00
2019-03-11T17:43:35.141Z,4.00
2019-03-11T17:44:35.050Z,4.00
2019-03-11T17:45:35.035Z,4.00
2019-03-11T17:46:35.013Z,4.00
2019-03-11T17:47:35.026Z,4.00
2019-03-11T17:48:35.001Z,0.00
2019-03-11T17:49:34.978Z,0.00
2019-03-11T17:50:34.975Z,4.00
2019-03-11T17:51:34.964Z,4.00
2019-03-11T17:52:34.980Z,0.00
2019-03-11T17:53:34.937Z,0.00
2019-03-11T17:54:34.932Z,0.00
2019-03-11T17:55:34.919Z,0.00
2019-03-11T17:56:34.908Z,0.00
2019-03-11T17:57:34.935Z,0.00
2019-03-11T17:58:34.886Z,0.00
2019-03-11T17:59:34.873Z,0.00
2019-03-11T18:00:34.877Z,0.00
2019-03-11T18:01:34.854Z,0.00
2019-03-11T18:02:34.878Z,0.00
2019-03-11T18:03:34.832Z,0.00
2019-03-11T18:04:34.835Z,0.00
2019-03-11T18:05:34.825Z,0.00
2019-03-11T18:06:34.814Z,0.00
2019-03-11T18:07:34.810Z,0.00
2019-03-11T18:08:34.787Z,0.00
2019-03-11T18:09:34.777Z,0.00
2019-03-11T18:10:34.767Z,0.00
2019-03-11T18:11:34.759Z,0.00
2019-03-11T18:12:34.777Z,0.00
2019-03-11T18:13:34.731Z,0.00
2019-03-11T18:14:34.739Z,0.00
2019-03-11T18:15:34.717Z,0.00
2019-03-11T18:16:34.700Z,0.00
2019-03-11T18:17:34.712Z,0.00
2019-03-11T18:18:34.677Z,0.00
2019-03-11T18:19:34.685Z,0.00
2019-03-11T18:20:34.698Z,0.00
2019-03-11T18:21:34.646Z,0.00
2019-03-11T18:22:34.660Z,0.00
2019-03-11T18:23:34.664Z,0.00
2019-03-11T18:24:34.619Z,0.00
2019-03-11T18:25:34.643Z,0.00
2019-03-11T18:26:34.635Z,0.00
2019-03-11T18:27:34.623Z,0.00
2019-03-11T18:28:34.587Z,0.00
2019-03-11T18:29:34.587Z,0.00
2019-03-11T18:30:34.552Z,0.00
2019-03-11T18:31:34.540Z,0.00
2019-03-11T18:32:34.580Z,0.00
2019-03-11T18:33:34.581Z,0.00
2019-03-11T18:34:34.520Z,0.00
2019-03-11T18:35:34.516Z,0.00
2019-03-11T18:36:34.518Z,0.00
2019-03-11T18:37:34.506Z,0.00
2019-03-11T18:38:34.487Z,0.00